Time;durP1;ratioP1;P1;durP2;ratioP2;P2;SDS_P1;SDS_P2;PMS_P1;PMS_P2;Temp;Humidity;BMP_temperature;BMP_pressure;BME280_temperature;BME280_humidity;BME280_pressure;Samples;Min_cycle;Max_cycle;Signal;HPM_P1;HPM_P2
2023/04/08 00:01:24;;;;;;;14.83;9.93;;;6.50;99.90;;;;;;5027438;28;20477;-67
2023/04/08 00:03:52;;;;;;;14.07;10.90;;;6.60;99.90;;;;;;5018608;28;21118;-66
2023/04/08 00:06:21;;;;;;;13.10;10.50;;;6.60;99.90;;;;;;5029332;28;20562;-66
2023/04/08 00:08:49;;;;;;;15.87;11.03;;;6.60;99.90;;;;;;5018633;28;20485;-66
2023/04/08 00:11:18;;;;;;;13.43;10.57;;;6.60;99.90;;;;;;5028625;28;21022;-66
2023/04/08 00:13:46;;;;;;;15.00;11.10;;;6.60;99.90;;;;;;5027472;28;20565;-67
2023/04/08 00:16:15;;;;;;;13.67;10.07;;;6.60;99.90;;;;;;5017298;28;20472;-67
2023/04/08 00:18:43;;;;;;;12.33;10.17;;;6.60;99.90;;;;;;5022762;28;20483;-66
2023/04/08 00:21:12;;;;;;;12.47;10.40;;;6.60;99.90;;;;;;5029706;28;20911;-67
2023/04/08 00:23:40;;;;;;;14.73;11.13;;;6.50;99.90;;;;;;5018995;28;20483;-66
2023/04/08 00:26:08;;;;;;;15.40;10.50;;;6.60;99.90;;;;;;5021885;28;20478;-66
2023/04/08 00:28:38;;;;;;;13.20;9.83;;;6.60;99.90;;;;;;5026075;28;20495;-65
2023/04/08 00:31:06;;;;;;;15.23;11.10;;;6.60;99.90;;;;;;5028069;28;20593;-66
2023/04/08 00:33:34;;;;;;;12.03;10.20;;;6.60;99.90;;;;;;5018121;28;21002;-66
2023/04/08 00:36:02;;;;;;;13.27;9.67;;;6.60;99.90;;;;;;5029290;28;20474;-66
2023/04/08 00:38:30;;;;;;;14.83;11.17;;;6.60;99.90;;;;;;5024603;28;20487;-66
2023/04/08 00:40:58;;;;;;;12.07;10.47;;;6.60;99.90;;;;;;5032485;28;20518;-67
2023/04/08 00:43:26;;;;;;;14.80;10.40;;;6.60;99.90;;;;;;5051030;28;20489;-67
2023/04/08 00:45:55;;;;;;;13.70;10.73;;;6.60;99.90;;;;;;5045027;28;20496;-67
2023/04/08 00:48:23;;;;;;;12.17;10.40;;;6.60;99.90;;;;;;5035020;28;20593;-66
2023/04/08 00:50:51;;;;;;;13.53;10.87;;;6.60;99.90;;;;;;5025479;28;20495;-66
2023/04/08 00:53:19;;;;;;;10.87;9.67;;;6.60;99.90;;;;;;5016898;28;20480;-66
2023/04/08 00:55:47;;;;;;;13.30;10.40;;;6.60;99.90;;;;;;5028665;28;20471;-66
2023/04/08 00:58:16;;;;;;;11.77;10.43;;;6.70;99.90;;;;;;5023444;28;20487;-66
2023/04/08 01:00:53;;;;;;;12.00;10.07;;;6.70;99.90;;;;;;5022678;28;20539;-67
2023/04/08 01:03:30;;;;;;;13.20;9.60;;;6.60;99.90;;;;;;5029061;28;20947;-66
2023/04/08 01:06:06;;;;;;;13.10;9.03;;;6.70;99.90;;;;;;5020727;28;20502;-66
2023/04/08 01:08:38;;;;;;;11.50;9.00;;;6.70;99.90;;;;;;5025379;28;21137;-66
2023/04/08 01:11:10;;;;;;;11.53;9.40;;;6.70;99.90;;;;;;5027678;28;20813;-66
2023/04/08 01:13:41;;;;;;;13.20;9.77;;;6.70;99.90;;;;;;5018413;28;20463;-66
2023/04/08 01:16:12;;;;;;;12.13;8.93;;;6.70;99.90;;;;;;5026887;28;20506;-66
2023/04/08 01:18:43;;;;;;;11.70;9.10;;;6.70;99.90;;;;;;5023228;28;20590;-67
2023/04/08 01:21:12;;;;;;;13.20;9.10;;;6.60;99.90;;;;;;5026912;28;20562;-67
2023/04/08 01:23:59;;;;;;;13.47;9.40;;;6.70;99.90;;;;;;5025260;28;20606;-65
2023/04/08 01:26:29;;;;;;;10.37;9.07;;;6.70;99.90;;;;;;5018943;28;20463;-67
2023/04/08 01:29:01;;;;;;;12.50;10.00;;;6.70;99.90;;;;;;5027676;28;20502;-65
2023/04/08 01:31:31;;;;;;;11.33;9.70;;;6.70;99.90;;;;;;5028377;28;20570;-65
2023/04/08 01:34:01;;;;;;;12.47;9.90;;;6.70;99.90;;;;;;5033469;28;20468;-67
2023/04/08 01:36:32;;;;;;;16.53;10.90;;;6.70;99.90;;;;;;5036879;28;20467;-67
2023/04/08 01:39:01;;;;;;;12.23;10.10;;;6.70;99.90;;;;;;5021279;28;21056;-66
2023/04/08 01:41:33;;;;;;;15.80;11.10;;;6.70;99.90;;;;;;5026891;28;20472;-66
2023/04/08 01:44:03;;;;;;;12.60;9.80;;;6.70;99.90;;;;;;5029651;28;21035;-66
2023/04/08 01:46:32;;;;;;;12.33;9.80;;;6.70;99.90;;;;;;5019998;28;20467;-66
2023/04/08 01:49:00;;;;;;;10.90;9.70;;;6.70;99.90;;;;;;5025685;28;20503;-66
2023/04/08 01:51:30;;;;;;;13.50;9.70;;;6.60;99.90;;;;;;5026336;28;20591;-66
2023/04/08 01:53:58;;;;;;;10.63;9.53;;;6.60;99.90;;;;;;5021218;28;20513;-66
2023/04/08 01:56:29;;;;;;;13.13;9.70;;;6.60;99.90;;;;;;5026142;28;20463;-66
2023/04/08 01:59:02;;;;;;;11.13;9.90;;;6.60;99.90;;;;;;5018920;28;20585;-66
2023/04/08 02:01:32;;;;;;;13.83;9.60;;;6.60;99.90;;;;;;5026705;28;21006;-66
2023/04/08 02:04:01;;;;;;;11.63;9.03;;;6.60;99.90;;;;;;5029096;28;20564;-65
2023/04/08 02:06:31;;;;;;;10.40;8.80;;;6.60;99.90;;;;;;5019028;28;20519;-65
2023/04/08 02:08:59;;;;;;;11.70;9.10;;;6.60;99.90;;;;;;5025244;28;20508;-66
2023/04/08 02:11:28;;;;;;;12.73;9.30;;;6.60;99.90;;;;;;5024684;28;20820;-66
2023/04/08 02:13:56;;;;;;;10.53;9.10;;;6.60;99.90;;;;;;5020718;28;20920;-66
2023/04/08 02:16:33;;;;;;;10.50;8.20;;;6.60;99.90;;;;;;5026265;28;20972;-66
2023/04/08 02:19:09;;;;;;;11.70;8.73;;;6.60;99.90;;;;;;5019135;28;20499;-66
2023/04/08 02:21:45;;;;;;;10.77;9.60;;;6.60;99.90;;;;;;5026822;28;20471;-66
2023/04/08 02:24:14;;;;;;;11.43;10.20;;;6.60;99.90;;;;;;5027160;28;20569;-66
2023/04/08 02:26:44;;;;;;;9.30;8.30;;;6.60;99.90;;;;;;5019323;28;20490;-66
2023/04/08 02:29:14;;;;;;;10.93;8.97;;;6.60;99.90;;;;;;5026297;28;20486;-66
2023/04/08 02:31:45;;;;;;;14.23;9.83;;;6.60;99.90;;;;;;5020758;28;20475;-67
2023/04/08 02:34:14;;;;;;;15.77;10.03;;;6.60;99.90;;;;;;5026497;28;20479;-66
2023/04/08 02:36:44;;;;;;;10.53;9.43;;;6.60;99.90;;;;;;5028986;28;20565;-66
2023/04/08 02:39:13;;;;;;;10.57;9.47;;;6.60;99.90;;;;;;5018152;28;21008;-66
2023/04/08 02:41:41;;;;;;;11.57;10.43;;;6.50;99.90;;;;;;5032225;28;20472;-67
2023/04/08 02:44:09;;;;;;;10.67;9.57;;;6.50;99.90;;;;;;5043446;28;20543;-67
2023/04/08 02:46:37;;;;;;;10.80;9.70;;;6.50;99.90;;;;;;5029433;28;20479;-66
2023/04/08 02:49:06;;;;;;;12.30;9.97;;;6.60;99.90;;;;;;5025393;28;20490;-66
2023/04/08 02:51:34;;;;;;;12.13;10.20;;;6.50;99.90;;;;;;5019103;28;20475;-66
2023/04/08 02:54:02;;;;;;;13.93;10.50;;;6.50;99.90;;;;;;5030772;28;20467;-66
2023/04/08 02:56:30;;;;;;;11.87;10.07;;;6.60;99.90;;;;;;5031816;28;20466;-66
2023/04/08 02:58:58;;;;;;;12.27;10.17;;;6.50;99.90;;;;;;5020530;28;20498;-66
2023/04/08 03:01:26;;;;;;;13.17;11.00;;;6.50;99.90;;;;;;5026918;28;20478;-66
2023/04/08 03:03:55;;;;;;;11.93;10.73;;;6.60;99.90;;;;;;5026694;28;20476;-66
2023/04/08 03:06:24;;;;;;;13.73;11.00;;;6.50;99.90;;;;;;5021385;28;20488;-66
2023/04/08 03:08:52;;;;;;;13.53;11.17;;;6.50;99.90;;;;;;5027614;28;20487;-67
2023/04/08 03:11:20;;;;;;;14.47;12.50;;;6.50;99.90;;;;;;5022137;28;20467;-68
2023/04/08 03:13:48;;;;;;;15.60;11.73;;;6.50;99.90;;;;;;5029184;28;20471;-66
2023/04/08 03:16:16;;;;;;;15.07;12.00;;;6.50;99.90;;;;;;5032340;28;20877;-67
2023/04/08 03:18:44;;;;;;;12.80;11.50;;;6.50;99.90;;;;;;5020201;28;20487;-66
2023/04/08 03:21:12;;;;;;;14.13;12.63;;;6.50;99.90;;;;;;5026452;28;20987;-66
2023/04/08 03:23:42;;;;;;;14.53;11.30;;;6.40;99.90;;;;;;5028092;28;20471;-67
2023/04/08 03:26:10;;;;;;;13.20;11.27;;;6.40;99.90;;;;;;5020197;28;20517;-66
2023/04/08 03:28:37;;;;;;;13.10;11.07;;;6.40;99.90;;;;;;5029403;28;20475;-66
2023/04/08 03:31:06;;;;;;;14.10;11.97;;;6.40;99.90;;;;;;5022883;28;21205;-68
2023/04/08 03:33:34;;;;;;;13.40;11.67;;;6.40;99.90;;;;;;5026578;28;20463;-66
2023/04/08 03:36:02;;;;;;;12.37;11.17;;;6.30;99.90;;;;;;5030124;28;20467;-66
2023/04/08 03:38:30;;;;;;;15.90;12.10;;;6.40;99.90;;;;;;5021592;28;20493;-66
2023/04/08 03:40:59;;;;;;;17.67;12.80;;;6.30;99.90;;;;;;5027990;28;20499;-66
2023/04/08 03:43:27;;;;;;;15.67;12.23;;;6.30;99.90;;;;;;5031606;28;21031;-66
2023/04/08 03:45:56;;;;;;;18.40;13.00;;;6.30;99.90;;;;;;5021139;28;21027;-66
2023/04/08 03:48:24;;;;;;;18.97;12.63;;;6.30;99.90;;;;;;5024220;28;20490;-66
2023/04/08 03:50:52;;;;;;;16.60;13.07;;;6.30;99.90;;;;;;5025422;28;20553;-66
2023/04/08 03:53:20;;;;;;;18.70;13.90;;;6.30;99.90;;;;;;5021151;28;20463;-66
2023/04/08 03:55:49;;;;;;;18.50;13.93;;;6.30;99.90;;;;;;5032007;28;20585;-66
2023/04/08 03:58:19;;;;;;;18.53;13.60;;;6.30;99.90;;;;;;5020354;28;20559;-66
2023/04/08 04:00:49;;;;;;;17.20;13.50;;;6.30;99.90;;;;;;5027445;28;20582;-65
2023/04/08 04:03:17;;;;;;;19.57;14.27;;;6.30;99.90;;;;;;5028572;28;20482;-65
2023/04/08 04:05:45;;;;;;;18.63;13.27;;;6.30;99.90;;;;;;5020642;28;20490;-65
2023/04/08 04:08:13;;;;;;;16.30;13.20;;;6.30;99.90;;;;;;5029258;28;20479;-66
2023/04/08 04:10:41;;;;;;;20.23;13.80;;;6.30;99.90;;;;;;5026197;28;20540;-67
2023/04/08 04:13:09;;;;;;;19.17;13.30;;;6.30;99.90;;;;;;5022860;28;20490;-66
2023/04/08 04:15:40;;;;;;;18.87;13.20;;;6.20;99.90;;;;;;5028953;28;20844;-66
2023/04/08 04:18:08;;;;;;;18.63;13.77;;;6.20;99.90;;;;;;5021195;28;20574;-66
2023/04/08 04:20:39;;;;;;;19.63;15.40;;;6.20;99.90;;;;;;5028476;28;20511;-66
2023/04/08 04:23:07;;;;;;;18.73;13.60;;;6.20;99.90;;;;;;5028054;28;20471;-66
2023/04/08 04:25:35;;;;;;;20.73;14.07;;;6.10;99.90;;;;;;5018857;28;20471;-65
2023/04/08 04:28:03;;;;;;;20.10;14.10;;;6.10;99.90;;;;;;5027163;28;20490;-66
2023/04/08 04:30:31;;;;;;;20.63;14.47;;;6.10;99.90;;;;;;5024132;28;20498;-66
2023/04/08 04:33:00;;;;;;;17.60;13.57;;;6.10;99.90;;;;;;5022285;28;20475;-66
2023/04/08 04:35:29;;;;;;;19.00;14.60;;;6.20;99.90;;;;;;5030755;28;20477;-67
2023/04/08 04:37:56;;;;;;;20.63;14.10;;;6.20;99.90;;;;;;5018014;28;20598;-67
2023/04/08 04:40:25;;;;;;;19.67;14.07;;;6.20;99.90;;;;;;5029476;28;20497;-67
2023/04/08 04:42:53;;;;;;;21.13;14.47;;;6.20;99.90;;;;;;5029282;28;20475;-67
2023/04/08 04:45:20;;;;;;;16.00;13.60;;;6.10;99.90;;;;;;5033079;28;20448;-67
2023/04/08 04:47:48;;;;;;;19.83;14.17;;;6.20;99.90;;;;;;5052528;28;21184;-68
2023/04/08 04:50:18;;;;;;;18.43;12.80;;;6.20;99.90;;;;;;5028253;28;20510;-67
2023/04/08 04:52:46;;;;;;;21.50;15.20;;;6.20;99.90;;;;;;5021316;28;20467;-66
2023/04/08 04:55:14;;;;;;;20.57;15.10;;;6.20;99.90;;;;;;5024063;28;20468;-66
2023/04/08 04:57:43;;;;;;;20.57;14.27;;;6.20;99.90;;;;;;5017592;28;20973;-66
2023/04/08 05:00:12;;;;;;;24.50;16.03;;;6.20;99.90;;;;;;5028649;28;20522;-66
2023/04/08 05:02:40;;;;;;;26.37;16.47;;;6.20;99.90;;;;;;5024130;28;21054;-66
2023/04/08 05:05:09;;;;;;;19.77;14.57;;;6.20;99.90;;;;;;5021289;28;20505;-65
2023/04/08 05:07:39;;;;;;;20.63;14.87;;;6.20;99.90;;;;;;5023753;28;20499;-65
2023/04/08 05:10:08;;;;;;;18.47;13.27;;;6.20;99.90;;;;;;5021369;28;20500;-66
2023/04/08 05:12:37;;;;;;;19.43;14.67;;;6.10;99.90;;;;;;5041827;28;20539;-66
2023/04/08 05:15:06;;;;;;;21.60;14.10;;;6.20;99.90;;;;;;5026644;28;20478;-66
2023/04/08 05:17:34;;;;;;;20.33;13.77;;;6.20;99.90;;;;;;5016640;28;20473;-66
2023/04/08 05:20:03;;;;;;;19.07;13.37;;;6.10;99.90;;;;;;5026803;28;20538;-66
2023/04/08 05:22:31;;;;;;;20.80;15.20;;;6.10;99.90;;;;;;5025413;28;20990;-66
2023/04/08 05:25:00;;;;;;;18.80;13.97;;;6.10;99.90;;;;;;5017388;28;20492;-65
2023/04/08 05:27:28;;;;;;;19.50;13.43;;;6.10;99.90;;;;;;5021520;28;20495;-65
2023/04/08 05:29:56;;;;;;;18.90;13.87;;;6.10;99.90;;;;;;5024743;28;20491;-66
2023/04/08 05:32:24;;;;;;;20.57;15.27;;;6.10;99.90;;;;;;5020523;28;20761;-66
2023/04/08 05:34:52;;;;;;;19.03;14.00;;;6.10;99.90;;;;;;5025408;28;20484;-66
2023/04/08 05:37:20;;;;;;;17.30;13.40;;;6.10;99.90;;;;;;5027320;28;20463;-65
2023/04/08 05:39:48;;;;;;;18.87;13.70;;;6.10;99.90;;;;;;5015345;28;20499;-65
2023/04/08 05:42:17;;;;;;;17.10;13.33;;;6.10;99.90;;;;;;5026492;28;20467;-65
2023/04/08 05:44:45;;;;;;;19.70;13.83;;;6.10;99.90;;;;;;5043886;28;21125;-66
2023/04/08 05:47:13;;;;;;;19.53;13.50;;;6.10;99.90;;;;;;5040484;28;20587;-66
2023/04/08 05:49:41;;;;;;;18.47;14.07;;;6.10;99.90;;;;;;5042347;28;20491;-67
2023/04/08 05:52:09;;;;;;;17.23;13.77;;;6.10;99.90;;;;;;5021650;28;20471;-67
2023/04/08 05:54:37;;;;;;;19.63;13.90;;;6.10;99.90;;;;;;5025447;28;21067;-67
2023/04/08 05:57:05;;;;;;;18.70;14.00;;;6.10;99.90;;;;;;5029741;28;20465;-68
2023/04/08 05:59:37;;;;;;;19.07;13.40;;;6.20;99.90;;;;;;5017908;28;20590;-67
2023/04/08 06:02:05;;;;;;;20.77;14.40;;;6.20;99.90;;;;;;5023852;28;20486;-67
2023/04/08 06:04:33;;;;;;;22.03;15.47;;;6.20;99.90;;;;;;5026646;28;20464;-66
2023/04/08 06:07:02;;;;;;;22.03;15.23;;;6.20;99.90;;;;;;5016681;28;20615;-66
2023/04/08 06:09:30;;;;;;;22.67;15.20;;;6.20;99.90;;;;;;5026912;28;20868;-66
2023/04/08 06:11:58;;;;;;;23.30;14.80;;;6.20;99.90;;;;;;5020548;28;20726;-66
2023/04/08 06:14:27;;;;;;;22.00;15.40;;;6.20;99.90;;;;;;5021098;28;20471;-66
2023/04/08 06:16:56;;;;;;;24.03;16.13;;;6.10;99.90;;;;;;5028645;28;20538;-66
2023/04/08 06:19:25;;;;;;;21.40;14.80;;;6.20;99.90;;;;;;5019852;28;20558;-66
2023/04/08 06:21:57;;;;;;;22.20;14.80;;;6.20;99.90;;;;;;5026078;28;20470;-66
2023/04/08 06:24:26;;;;;;;22.20;14.50;;;6.20;99.90;;;;;;5024508;28;20475;-66
2023/04/08 06:26:54;;;;;;;20.43;14.53;;;6.20;99.90;;;;;;5019062;28;20464;-67
2023/04/08 06:29:22;;;;;;;20.53;14.13;;;6.20;99.90;;;;;;5028697;28;20529;-66
2023/04/08 06:31:50;;;;;;;20.63;14.30;;;6.20;99.90;;;;;;5020399;28;20472;-66
2023/04/08 06:34:20;;;;;;;22.43;14.27;;;6.20;99.90;;;;;;5017665;28;20517;-67
2023/04/08 06:36:49;;;;;;;19.53;14.73;;;6.20;99.90;;;;;;5026628;28;20482;-66
2023/04/08 06:39:18;;;;;;;21.73;15.33;;;6.20;99.90;;;;;;5018260;28;20790;-66
2023/04/08 06:41:46;;;;;;;20.00;13.93;;;6.20;99.90;;;;;;5022263;28;20475;-66
2023/04/08 06:44:14;;;;;;;21.20;14.40;;;6.20;99.90;;;;;;5028035;28;20464;-65
2023/04/08 06:46:42;;;;;;;21.33;14.83;;;6.20;99.90;;;;;;5020001;28;20475;-66
2023/04/08 06:49:10;;;;;;;20.17;14.23;;;6.20;99.90;;;;;;5034077;28;20534;-66
2023/04/08 06:51:40;;;;;;;23.50;15.80;;;6.30;99.90;;;;;;5027020;28;20476;-67
2023/04/08 06:54:08;;;;;;;19.53;14.60;;;6.20;99.90;;;;;;5020984;28;20478;-66
2023/04/08 06:56:36;;;;;;;23.17;14.63;;;6.20;99.90;;;;;;5035382;28;20510;-66
2023/04/08 06:59:05;;;;;;;21.63;14.40;;;6.20;99.90;;;;;;5024308;28;21017;-66
2023/04/08 07:01:32;;;;;;;18.70;13.53;;;6.10;99.90;;;;;;5028926;28;20475;-66
2023/04/08 07:04:01;;;;;;;21.10;13.90;;;6.20;99.90;;;;;;5011432;28;20527;-66
2023/04/08 07:06:29;;;;;;;21.87;14.60;;;6.20;99.90;;;;;;5029275;28;20475;-67
2023/04/08 07:08:59;;;;;;;19.40;14.10;;;6.20;99.90;;;;;;5026794;28;20494;-67
2023/04/08 07:11:27;;;;;;;19.63;14.77;;;6.20;99.90;;;;;;5027669;28;21011;-66
2023/04/08 07:13:55;;;;;;;16.77;13.33;;;6.20;99.90;;;;;;5034443;28;20463;-67
2023/04/08 07:16:23;;;;;;;18.33;13.13;;;6.20;99.90;;;;;;5025818;28;20475;-66
2023/04/08 07:18:51;;;;;;;17.10;13.40;;;6.20;99.90;;;;;;5029095;28;20553;-67
2023/04/08 07:21:20;;;;;;;17.43;12.33;;;6.20;99.90;;;;;;5034524;28;20490;-67
2023/04/08 07:23:47;;;;;;;20.33;13.50;;;6.20;99.90;;;;;;5020479;28;20474;-67
2023/04/08 07:26:17;;;;;;;17.90;13.53;;;6.30;99.90;;;;;;5031719;28;20502;-66
2023/04/08 07:28:48;;;;;;;17.30;12.27;;;6.30;99.90;;;;;;5031500;28;20487;-67
2023/04/08 07:31:17;;;;;;;19.47;13.80;;;6.30;99.90;;;;;;5022837;28;20557;-66
2023/04/08 07:33:46;;;;;;;17.57;13.40;;;6.30;99.90;;;;;;5030820;28;20476;-66
2023/04/08 07:36:17;;;;;;;17.10;12.40;;;6.30;99.90;;;;;;5019947;28;20478;-67
2023/04/08 07:38:45;;;;;;;16.83;12.80;;;6.40;99.90;;;;;;5029529;28;20514;-67
2023/04/08 07:41:13;;;;;;;19.10;14.37;;;6.30;99.90;;;;;;5030873;28;20506;-66
2023/04/08 07:43:42;;;;;;;16.80;13.13;;;6.40;99.90;;;;;;5018810;28;20471;-67
2023/04/08 07:46:10;;;;;;;19.03;12.57;;;6.40;99.90;;;;;;5027496;28;20984;-67
2023/04/08 07:48:38;;;;;;;15.83;11.70;;;6.40;99.90;;;;;;5022004;28;20494;-68
2023/04/08 07:51:08;;;;;;;14.07;11.40;;;6.40;99.90;;;;;;5027379;28;20467;-67
2023/04/08 07:53:39;;;;;;;16.57;11.57;;;6.40;99.90;;;;;;5027281;28;20558;-67
2023/04/08 07:56:12;;;;;;;14.83;11.23;;;6.40;99.90;;;;;;5022744;28;20475;-68
2023/04/08 07:58:41;;;;;;;15.70;11.57;;;6.40;99.90;;;;;;5029512;28;20518;-66
2023/04/08 08:01:21;;;;;;;16.03;12.27;;;6.40;99.90;;;;;;5023342;28;20475;-66
2023/04/08 08:03:49;;;;;;;14.27;11.10;;;6.40;99.90;;;;;;5025608;28;20528;-67
2023/04/08 08:06:18;;;;;;;15.90;11.90;;;6.50;99.90;;;;;;5026194;28;20469;-67
2023/04/08 08:08:46;;;;;;;18.63;12.57;;;6.50;99.90;;;;;;5017197;28;20495;-67
2023/04/08 08:11:14;;;;;;;15.90;13.00;;;6.40;99.90;;;;;;5027641;28;20823;-67
2023/04/08 08:13:44;;;;;;;18.83;12.63;;;6.50;99.90;;;;;;5028375;28;20563;-66
2023/04/08 08:16:12;;;;;;;18.10;13.10;;;6.40;99.90;;;;;;5014979;28;20819;-67
2023/04/08 08:18:41;;;;;;;18.40;13.30;;;6.50;99.90;;;;;;5028884;28;20518;-67
2023/04/08 08:21:09;;;;;;;16.10;12.57;;;6.50;99.90;;;;;;5027594;28;20474;-67
2023/04/08 08:23:37;;;;;;;17.57;12.83;;;6.50;99.90;;;;;;5021459;28;20474;-67
2023/04/08 08:26:08;;;;;;;16.23;12.10;;;6.50;99.90;;;;;;5029213;28;20566;-66
2023/04/08 08:28:37;;;;;;;16.80;12.50;;;6.60;99.90;;;;;;5023762;28;21038;-64
2023/04/08 08:31:06;;;;;;;16.73;11.73;;;6.60;99.90;;;;;;5027353;28;20511;-66
2023/04/08 08:33:34;;;;;;;16.50;12.50;;;6.60;99.90;;;;;;5020619;28;20471;-65
2023/04/08 08:36:04;;;;;;;17.77;11.80;;;6.60;99.90;;;;;;5025827;28;20474;-65
2023/04/08 08:38:31;;;;;;;18.93;13.23;;;6.60;99.90;;;;;;5027104;28;20463;-66
2023/04/08 08:41:00;;;;;;;20.20;12.27;;;6.70;99.90;;;;;;5017697;28;20501;-66
2023/04/08 08:43:32;;;;;;;17.17;12.53;;;6.60;99.90;;;;;;5027842;28;20851;-66
2023/04/08 08:46:00;;;;;;;16.20;11.70;;;6.60;99.90;;;;;;5027177;28;20475;-66
2023/04/08 08:48:29;;;;;;;15.33;12.13;;;6.70;99.90;;;;;;5035824;28;20491;-67
2023/04/08 08:50:58;;;;;;;18.53;12.50;;;6.70;99.90;;;;;;5033546;28;20475;-67
2023/04/08 08:53:29;;;;;;;14.80;11.50;;;6.80;99.90;;;;;;5023696;28;20945;-67
2023/04/08 08:56:01;;;;;;;15.07;11.67;;;6.90;99.90;;;;;;5047556;28;20566;-67
2023/04/08 08:58:44;;;;;;;17.93;12.27;;;6.90;99.90;;;;;;5035728;28;20846;-65
2023/04/08 09:01:32;;;;;;;16.50;12.00;;;7.00;99.90;;;;;;5018249;28;20581;-67
2023/04/08 09:04:21;;;;;;;15.50;12.50;;;7.00;99.90;;;;;;5032012;28;20481;-66
2023/04/08 09:06:51;;;;;;;18.60;13.20;;;7.00;99.90;;;;;;5023206;28;20475;-66
2023/04/08 09:09:19;;;;;;;18.33;13.00;;;7.00;99.90;;;;;;5022189;28;20476;-66
2023/04/08 09:11:47;;;;;;;15.60;13.00;;;7.00;99.90;;;;;;5025584;28;20962;-65
2023/04/08 09:14:23;;;;;;;20.07;13.37;;;7.00;99.90;;;;;;5019418;28;20487;-65
2023/04/08 09:16:51;;;;;;;16.67;12.90;;;7.00;99.90;;;;;;5019589;28;20474;-66
2023/04/08 09:19:21;;;;;;;17.20;12.53;;;7.10;99.90;;;;;;5026003;28;20578;-66
2023/04/08 09:22:05;;;;;;;17.17;13.00;;;7.10;99.90;;;;;;5018721;28;20472;-66
2023/04/08 09:24:34;;;;;;;19.73;13.70;;;7.20;99.90;;;;;;5044227;28;20501;-66
2023/04/08 09:27:02;;;;;;;17.43;13.43;;;7.20;99.90;;;;;;5039608;28;20529;-66
2023/04/08 09:29:30;;;;;;;19.73;12.13;;;7.30;99.90;;;;;;5043446;28;20487;-66
2023/04/08 09:32:02;;;;;;;16.13;12.57;;;7.30;99.90;;;;;;5029038;28;20503;-65
2023/04/08 09:34:33;;;;;;;14.37;11.87;;;7.20;99.90;;;;;;5016838;28;20483;-66
2023/04/08 09:37:01;;;;;;;16.37;12.23;;;7.30;99.90;;;;;;5029138;28;20475;-66
2023/04/08 09:39:30;;;;;;;17.67;13.00;;;7.30;99.90;;;;;;5023421;28;20487;-66
2023/04/08 09:42:00;;;;;;;16.00;12.77;;;7.30;99.90;;;;;;5021934;28;20479;-66
2023/04/08 09:44:29;;;;;;;14.73;12.37;;;7.30;99.90;;;;;;5028363;28;20475;-66
2023/04/08 09:47:06;;;;;;;13.43;11.60;;;7.30;99.90;;;;;;5018424;28;20885;-66
2023/04/08 09:49:42;;;;;;;13.53;12.00;;;7.30;99.90;;;;;;5026404;28;20482;-66
2023/04/08 09:52:13;;;;;;;15.20;13.10;;;7.30;99.90;;;;;;5028650;28;20862;-66
2023/04/08 09:54:47;;;;;;;15.63;12.50;;;7.30;99.90;;;;;;5017237;28;20474;-66
2023/04/08 09:57:21;;;;;;;16.60;12.60;;;7.30;99.90;;;;;;5029024;28;20556;-65
2023/04/08 09:59:56;;;;;;;16.43;14.10;;;7.30;99.90;;;;;;5020804;28;20494;-66
2023/04/08 10:02:30;;;;;;;18.43;14.60;;;7.30;99.90;;;;;;5026643;28;20473;-66
2023/04/08 10:05:04;;;;;;;16.83;14.27;;;7.40;99.90;;;;;;5025119;28;20829;-66
2023/04/08 10:07:35;;;;;;;17.10;14.00;;;7.40;99.90;;;;;;5012579;28;20467;-66
2023/04/08 10:10:04;;;;;;;17.33;14.23;;;7.40;99.90;;;;;;5023456;28;20499;-67
2023/04/08 10:12:32;;;;;;;17.80;14.23;;;7.40;99.90;;;;;;5025583;28;20472;-67
2023/04/08 10:15:23;;;;;;;17.87;14.37;;;7.50;99.90;;;;;;5019386;28;20850;-66
2023/04/08 10:17:51;;;;;;;16.93;13.33;;;7.50;99.90;;;;;;5025655;28;20593;-66
2023/04/08 10:20:44;;;;;;;16.90;13.30;;;7.60;99.90;;;;;;5018718;28;20577;-66
2023/04/08 10:23:13;;;;;;;13.57;11.93;;;7.60;99.90;;;;;;5026519;28;20941;-66
2023/04/08 10:25:43;;;;;;;17.07;12.27;;;7.60;99.90;;;;;;5022599;28;20467;-67
2023/04/08 10:28:32;;;;;;;14.00;12.47;;;7.60;99.90;;;;;;5022505;28;20499;-65
2023/04/08 10:31:01;;;;;;;17.17;13.47;;;7.60;99.90;;;;;;5020606;28;21070;-65
2023/04/08 10:33:34;;;;;;;15.40;12.50;;;7.60;99.90;;;;;;5018355;28;20471;-65
2023/04/08 10:36:12;;;;;;;17.07;13.50;;;7.60;99.90;;;;;;5029702;28;20485;-65
2023/04/08 10:38:41;;;;;;;16.07;12.50;;;7.50;99.90;;;;;;5024096;28;20491;-65
2023/04/08 10:41:12;;;;;;;18.13;13.10;;;7.60;99.90;;;;;;5019669;28;20487;-66
2023/04/08 10:43:40;;;;;;;20.13;14.60;;;7.60;99.90;;;;;;5026078;28;20471;-66
2023/04/08 10:46:10;;;;;;;16.77;14.10;;;7.60;99.90;;;;;;5022914;28;20477;-66
2023/04/08 10:48:38;;;;;;;17.53;14.23;;;7.60;99.90;;;;;;5035022;28;20487;-67
2023/04/08 10:51:06;;;;;;;16.90;14.50;;;7.70;99.90;;;;;;5025549;28;20502;-66
2023/04/08 10:53:37;;;;;;;15.40;13.33;;;7.70;99.90;;;;;;5013289;28;20494;-66
2023/04/08 10:56:07;;;;;;;16.50;13.90;;;7.70;99.90;;;;;;5028280;28;20478;-66
2023/04/08 10:58:35;;;;;;;19.03;14.20;;;7.70;99.90;;;;;;5027645;28;20483;-68
2023/04/08 11:01:06;;;;;;;15.00;13.00;;;7.70;99.90;;;;;;5043647;28;20494;-67
2023/04/08 11:03:35;;;;;;;17.83;13.93;;;7.70;99.90;;;;;;5046268;28;20946;-66
2023/04/08 11:06:04;;;;;;;20.43;15.00;;;7.80;99.90;;;;;;5025600;28;20603;-67
2023/04/08 11:08:33;;;;;;;18.93;16.13;;;7.80;99.90;;;;;;5025014;28;20582;-65
2023/04/08 11:11:06;;;;;;;20.70;15.00;;;7.80;99.90;;;;;;5023751;28;20506;-65
2023/04/08 11:13:34;;;;;;;19.83;16.00;;;7.80;99.90;;;;;;5013832;28;20480;-66
2023/04/08 11:16:04;;;;;;;21.07;15.37;;;7.80;99.90;;;;;;5023921;28;20468;-66
2023/04/08 11:18:35;;;;;;;22.70;16.60;;;7.80;99.90;;;;;;5027524;28;20562;-66
2023/04/08 11:21:04;;;;;;;18.37;14.30;;;7.80;99.90;;;;;;5019833;28;20487;-65
2023/04/08 11:23:32;;;;;;;17.97;14.83;;;7.80;99.90;;;;;;5027458;28;20476;-65
2023/04/08 11:26:00;;;;;;;20.27;15.67;;;7.80;99.90;;;;;;5019304;28;20482;-71
2023/04/08 11:28:31;;;;;;;18.60;14.67;;;7.80;99.90;;;;;;5017134;28;20574;-65
2023/04/08 11:30:59;;;;;;;18.43;14.70;;;7.80;99.90;;;;;;5023917;28;20502;-64
2023/04/08 11:33:27;;;;;;;18.00;16.10;;;7.80;99.90;;;;;;5009202;28;20472;-66
2023/04/08 11:35:55;;;;;;;23.10;15.97;;;7.80;99.90;;;;;;5024025;28;20471;-66
2023/04/08 11:38:24;;;;;;;20.17;16.93;;;7.80;99.90;;;;;;5031403;28;20483;-66
2023/04/08 11:40:54;;;;;;;20.83;16.17;;;7.90;99.90;;;;;;5019798;28;20497;-66
2023/04/08 11:43:22;;;;;;;21.50;16.50;;;7.90;99.90;;;;;;5028323;28;21118;-65
2023/04/08 11:45:51;;;;;;;20.67;17.07;;;7.90;99.90;;;;;;5029140;28;21022;-66
2023/04/08 11:48:20;;;;;;;17.33;15.50;;;7.90;99.90;;;;;;5020189;28;20877;-65
2023/04/08 11:50:49;;;;;;;22.33;17.27;;;7.90;99.90;;;;;;5029678;28;20490;-65
2023/04/08 11:53:19;;;;;;;22.93;17.57;;;7.90;99.90;;;;;;5021476;28;20471;-66
2023/04/08 11:55:48;;;;;;;21.87;17.07;;;7.90;99.90;;;;;;5022707;28;20513;-66
2023/04/08 11:58:16;;;;;;;19.67;16.53;;;7.90;99.90;;;;;;5010596;28;20516;-66
2023/04/08 12:00:45;;;;;;;20.80;16.17;;;8.00;99.90;;;;;;5025805;28;20494;-66
2023/04/08 12:03:15;;;;;;;22.33;16.47;;;8.00;99.90;;;;;;5025946;28;20598;-66
2023/04/08 12:05:43;;;;;;;22.30;16.77;;;8.00;99.90;;;;;;5020832;28;20878;-65
2023/04/08 12:08:11;;;;;;;20.13;15.60;;;8.00;99.90;;;;;;5027791;28;21672;-66
2023/04/08 12:10:39;;;;;;;17.07;15.27;;;8.00;99.90;;;;;;5021598;28;20494;-66
2023/04/08 12:13:07;;;;;;;21.10;16.80;;;8.10;99.90;;;;;;5027095;28;20484;-67
2023/04/08 12:15:35;;;;;;;20.53;17.07;;;8.10;99.90;;;;;;5027608;28;20670;-66
2023/04/08 12:18:03;;;;;;;20.50;16.50;;;8.00;99.90;;;;;;5022149;28;21030;-66
2023/04/08 12:20:32;;;;;;;20.13;16.40;;;8.10;99.90;;;;;;5029490;28;20494;-66
2023/04/08 12:23:00;;;;;;;19.80;14.83;;;8.10;99.90;;;;;;5046241;28;20455;-67
2023/04/08 12:25:30;;;;;;;17.83;14.07;;;8.10;99.90;;;;;;5026138;28;20471;-66
2023/04/08 12:27:58;;;;;;;20.27;14.77;;;8.10;99.90;;;;;;5018968;28;21060;-66
2023/04/08 12:30:26;;;;;;;17.80;14.40;;;8.10;99.90;;;;;;5028456;28;20502;-66
2023/04/08 12:32:56;;;;;;;17.73;14.47;;;8.10;99.90;;;;;;5022336;28;20471;-67
2023/04/08 12:35:24;;;;;;;18.00;14.57;;;8.20;99.90;;;;;;5027151;28;20471;-66
2023/04/08 12:37:54;;;;;;;18.47;14.83;;;8.20;99.90;;;;;;5030139;28;20475;-65
2023/04/08 12:40:22;;;;;;;16.73;15.03;;;8.20;99.90;;;;;;5017593;28;20498;-66
2023/04/08 12:42:50;;;;;;;17.30;13.50;;;8.20;99.90;;;;;;5029156;28;20475;-66
2023/04/08 12:45:18;;;;;;;18.87;14.97;;;8.20;99.90;;;;;;5029611;28;20477;-65
2023/04/08 12:47:46;;;;;;;16.27;14.40;;;8.30;99.90;;;;;;5019800;28;20476;-66
2023/04/08 12:50:14;;;;;;;17.23;15.23;;;8.30;99.90;;;;;;5029301;28;20499;-66